Time;durP1;ratioP1;P1;durP2;ratioP2;P2;SDS_P1;SDS_P2;PMS_P1;PMS_P2;Temp;Humidity;BMP_temperature;BMP_pressure;BME280_temperature;BME280_humidity;BME280_pressure;Samples;Min_cycle;Max_cycle;Signal;HPM_P1;HPM_P2
2023/03/06 00:01:07;;;;;;;19.70;10.30;;;;;;;;;;5039100;28;20029;-78
2023/03/06 00:03:32;;;;;;;15.65;9.30;;;;;;;;;;5044928;28;20032;-80
2023/03/06 00:05:58;;;;;;;22.38;10.18;;;;;;;;;;5049766;28;20079;-71
2023/03/06 00:08:24;;;;;;;20.30;9.15;;;;;;;;;;5042496;28;20475;-73
2023/03/06 00:10:49;;;;;;;20.63;9.77;;;;;;;;;;5024937;28;20102;-70
2023/03/06 00:13:15;;;;;;;17.02;9.80;;;;;;;;;;5023667;28;20022;-71
2023/03/06 00:15:40;;;;;;;20.65;9.82;;;;;;;;;;5043668;28;20025;-71
2023/03/06 00:18:06;;;;;;;22.38;9.68;;;;;;;;;;5024461;28;20100;-71
2023/03/06 00:20:32;;;;;;;19.60;9.40;;;;;;;;;;5025991;28;20139;-71
2023/03/06 00:22:57;;;;;;;16.83;9.77;;;;;;;;;;5046669;28;20117;-81
2023/03/06 00:25:23;;;;;;;18.50;9.38;;;;;;;;;;5030939;28;20506;-81
2023/03/06 00:27:48;;;;;;;20.98;10.00;;;;;;;;;;5031440;28;20047;-79
2023/03/06 00:30:15;;;;;;;16.10;9.88;;;;;;;;;;5045951;28;20025;-82
2023/03/06 00:32:41;;;;;;;19.67;9.70;;;;;;;;;;5048055;28;20032;-80
2023/03/06 00:35:06;;;;;;;18.88;9.95;;;;;;;;;;5043776;28;20120;-81
2023/03/06 00:37:31;;;;;;;17.27;10.10;;;;;;;;;;5055292;28;20037;-80
2023/03/06 00:39:57;;;;;;;19.58;10.25;;;;;;;;;;5048222;28;20099;-83
2023/03/06 00:42:22;;;;;;;20.90;10.98;;;;;;;;;;5049526;28;20021;-71
2023/03/06 00:44:47;;;;;;;19.85;9.48;;;;;;;;;;5044621;28;20033;-70
2023/03/06 00:47:15;;;;;;;21.90;9.20;;;;;;;;;;5047672;28;20060;-71
2023/03/06 00:49:41;;;;;;;23.60;10.40;;;;;;;;;;5041749;28;20332;-71
2023/03/06 00:52:06;;;;;;;17.83;9.57;;;;;;;;;;5024726;28;20372;-72
2023/03/06 00:54:31;;;;;;;21.17;10.53;;;;;;;;;;5047746;28;20479;-70
2023/03/06 00:56:57;;;;;;;20.30;11.80;;;;;;;;;;5045683;28;20762;-76
2023/03/06 00:59:22;;;;;;;17.23;9.23;;;;;;;;;;5047068;28;20884;-80
2023/03/06 01:01:47;;;;;;;21.20;9.93;;;;;;;;;;5044134;28;20283;-79
2023/03/06 01:04:13;;;;;;;16.75;9.60;;;;;;;;;;5045367;28;20042;-80
2023/03/06 01:06:38;;;;;;;18.73;10.27;;;;;;;;;;5048244;28;20037;-80
2023/03/06 01:09:04;;;;;;;21.10;9.48;;;;;;;;;;5050986;28;20017;-82
2023/03/06 01:11:29;;;;;;;19.73;9.73;;;;;;;;;;5051020;28;20021;-78
2023/03/06 01:13:55;;;;;;;18.85;9.48;;;;;;;;;;5047252;28;20044;-80
2023/03/06 01:16:20;;;;;;;17.03;10.07;;;;;;;;;;5042224;28;20363;-75
2023/03/06 01:18:45;;;;;;;16.40;9.90;;;;;;;;;;5026319;28;20766;-79
2023/03/06 01:21:11;;;;;;;23.13;9.80;;;;;;;;;;5038988;28;20052;-79
2023/03/06 01:23:36;;;;;;;20.00;9.98;;;;;;;;;;5044358;28;20064;-79
2023/03/06 01:26:02;;;;;;;18.40;9.98;;;;;;;;;;5044745;28;20021;-80
2023/03/06 01:28:28;;;;;;;19.95;10.25;;;;;;;;;;5048619;28;20273;-80
2023/03/06 01:30:53;;;;;;;19.15;9.93;;;;;;;;;;5044711;28;20025;-81
2023/03/06 01:33:18;;;;;;;19.67;10.20;;;;;;;;;;5025860;28;20377;-81
2023/03/06 01:35:44;;;;;;;20.10;9.88;;;;;;;;;;5028352;28;20037;-82
2023/03/06 01:38:09;;;;;;;19.95;10.18;;;;;;;;;;5043728;28;20282;-79
2023/03/06 01:40:35;;;;;;;21.33;9.60;;;;;;;;;;5033121;28;20047;-80
2023/03/06 01:43:19;;;;;;;22.92;10.68;;;;;;;;;;5033338;28;20112;-79
2023/03/06 01:45:44;;;;;;;19.92;10.20;;;;;;;;;;5035314;28;20033;-78
2023/03/06 01:48:09;;;;;;;20.53;10.33;;;;;;;;;;5022587;28;20033;-78
2023/03/06 01:50:35;;;;;;;17.38;10.10;;;;;;;;;;5043154;28;20096;-79
2023/03/06 01:53:00;;;;;;;20.42;11.43;;;;;;;;;;5027850;28;20025;-79
2023/03/06 01:55:27;;;;;;;20.58;10.25;;;;;;;;;;5047886;28;20021;-72
2023/03/06 01:57:56;;;;;;;18.10;8.05;;;;;;;;;;5045097;28;20162;-73
2023/03/06 02:00:23;;;;;;;17.90;10.13;;;;;;;;;;5043479;28;20412;-73
2023/03/06 02:03:00;;;;;;;22.42;11.07;;;;;;;;;;5042562;28;20480;-73
2023/03/06 02:05:25;;;;;;;19.05;10.43;;;;;;;;;;5025786;28;20029;-74
2023/03/06 02:07:52;;;;;;;18.40;9.32;;;;;;;;;;5024864;28;20115;-73
2023/03/06 02:10:18;;;;;;;17.40;10.23;;;;;;;;;;5026347;28;20025;-83
2023/03/06 02:12:43;;;;;;;21.20;9.52;;;;;;;;;;5033936;28;20032;-75
2023/03/06 02:15:10;;;;;;;17.58;9.68;;;;;;;;;;5030392;28;20035;-78
2023/03/06 02:17:35;;;;;;;15.70;8.93;;;;;;;;;;5040011;28;20033;-77
2023/03/06 02:20:00;;;;;;;15.52;8.82;;;;;;;;;;5042441;28;20025;-76
2023/03/06 02:22:32;;;;;;;19.63;9.47;;;;;;;;;;5023170;28;20044;-78
2023/03/06 02:25:02;;;;;;;18.30;9.57;;;;;;;;;;5042937;28;20431;-77
2023/03/06 02:27:29;;;;;;;15.23;8.05;;;;;;;;;;5050563;28;20168;-75
2023/03/06 02:29:55;;;;;;;16.73;9.07;;;;;;;;;;5045086;28;20033;-72
2023/03/06 02:32:20;;;;;;;20.92;8.38;;;;;;;;;;5030897;28;20707;-78
2023/03/06 02:34:51;;;;;;;18.33;9.38;;;;;;;;;;5030333;28;20037;-78
2023/03/06 02:37:16;;;;;;;17.35;8.15;;;;;;;;;;5040310;28;20029;-80
2023/03/06 02:39:46;;;;;;;20.13;8.57;;;;;;;;;;5045733;28;20460;-78
2023/03/06 02:42:16;;;;;;;20.55;8.52;;;;;;;;;;5019234;28;20371;-79
2023/03/06 02:44:41;;;;;;;16.20;8.23;;;;;;;;;;5052384;28;20029;-79
2023/03/06 02:47:06;;;;;;;19.60;8.73;;;;;;;;;;5047464;28;20383;-80
2023/03/06 02:49:32;;;;;;;18.57;8.83;;;;;;;;;;5029959;28;20624;-73
2023/03/06 02:51:57;;;;;;;14.17;7.93;;;;;;;;;;5033066;28;20769;-79
2023/03/06 02:54:22;;;;;;;21.00;9.90;;;;;;;;;;5023811;28;20279;-78
2023/03/06 02:56:47;;;;;;;19.70;8.80;;;;;;;;;;5025743;28;20094;-78
2023/03/06 02:59:12;;;;;;;16.13;8.30;;;;;;;;;;5040996;28;20705;-80
2023/03/06 03:01:38;;;;;;;15.30;8.60;;;;;;;;;;5041242;28;20389;-78
2023/03/06 03:04:03;;;;;;;16.17;9.63;;;;;;;;;;5044913;28;20616;-78
2023/03/06 03:06:28;;;;;;;21.20;9.55;;;;;;;;;;5044859;28;20698;-76
2023/03/06 03:08:53;;;;;;;14.70;7.85;;;;;;;;;;5017811;28;20577;-73
2023/03/06 03:11:19;;;;;;;14.57;8.63;;;;;;;;;;5039769;28;20025;-74
2023/03/06 03:13:44;;;;;;;15.70;8.45;;;;;;;;;;5022830;28;20025;-75
2023/03/06 03:16:12;;;;;;;12.48;7.68;;;;;;;;;;5044338;28;20029;-73
2023/03/06 03:18:38;;;;;;;14.60;8.25;;;;;;;;;;5045739;28;20029;-73
2023/03/06 03:21:06;;;;;;;16.70;8.40;;;;;;;;;;5044262;28;20030;-73
2023/03/06 03:23:31;;;;;;;15.32;8.35;;;;;;;;;;5024792;28;20024;-75
2023/03/06 03:26:04;;;;;;;16.30;9.33;;;;;;;;;;5023626;28;20510;-74
2023/03/06 03:28:29;;;;;;;14.98;8.30;;;;;;;;;;5021552;28;20280;-77
2023/03/06 03:30:55;;;;;;;16.17;8.30;;;;;;;;;;5044245;28;20116;-76
2023/03/06 03:33:20;;;;;;;18.63;8.57;;;;;;;;;;5041961;28;20354;-76
2023/03/06 03:35:45;;;;;;;15.67;9.20;;;;;;;;;;5040015;28;20280;-77
2023/03/06 03:38:10;;;;;;;18.00;9.07;;;;;;;;;;5042964;28;20368;-75
2023/03/06 03:40:37;;;;;;;18.37;7.43;;;;;;;;;;5041967;28;20040;-77
2023/03/06 03:43:02;;;;;;;18.52;7.82;;;;;;;;;;5043262;28;20284;-78
2023/03/06 03:45:27;;;;;;;17.10;8.40;;;;;;;;;;5021836;28;20426;-77
2023/03/06 03:47:53;;;;;;;18.47;8.43;;;;;;;;;;5042867;28;20739;-76
2023/03/06 03:50:18;;;;;;;17.17;8.57;;;;;;;;;;5049320;28;20271;-77
2023/03/06 03:52:43;;;;;;;17.33;9.35;;;;;;;;;;5050634;28;20291;-77
2023/03/06 03:55:08;;;;;;;15.77;7.45;;;;;;;;;;5047741;28;20408;-78
2023/03/06 03:57:34;;;;;;;14.60;8.68;;;;;;;;;;5049673;28;20068;-77
2023/03/06 03:59:59;;;;;;;13.23;8.25;;;;;;;;;;5026545;28;20075;-79
2023/03/06 04:02:24;;;;;;;16.02;7.70;;;;;;;;;;5042070;28;20029;-76
2023/03/06 04:04:50;;;;;;;14.50;7.78;;;;;;;;;;5024641;28;20083;-71
2023/03/06 04:07:15;;;;;;;16.30;8.50;;;;;;;;;;5043024;28;20025;-72
2023/03/06 04:09:40;;;;;;;13.27;8.10;;;;;;;;;;5027209;28;20292;-72
2023/03/06 04:12:06;;;;;;;18.87;8.40;;;;;;;;;;5028523;28;20271;-70
2023/03/06 04:14:31;;;;;;;15.57;7.85;;;;;;;;;;5027868;28;20278;-71
2023/03/06 04:16:56;;;;;;;13.30;6.80;;;;;;;;;;5047607;28;20032;-73
2023/03/06 04:19:21;;;;;;;12.98;6.38;;;;;;;;;;5041260;28;20426;-74
2023/03/06 04:21:47;;;;;;;17.33;9.00;;;;;;;;;;5036990;28;20376;-73
2023/03/06 04:24:12;;;;;;;14.90;7.47;;;;;;;;;;5030670;28;20301;-80
2023/03/06 04:26:37;;;;;;;14.90;7.72;;;;;;;;;;5031261;28;20061;-79
2023/03/06 04:29:02;;;;;;;16.43;8.00;;;;;;;;;;5045685;28;20028;-80
2023/03/06 04:31:28;;;;;;;18.13;8.10;;;;;;;;;;5024994;28;20280;-78
2023/03/06 04:33:53;;;;;;;12.35;7.18;;;;;;;;;;5028779;28;20306;-78
2023/03/06 04:36:29;;;;;;;14.73;7.43;;;;;;;;;;5046271;28;20025;-80
2023/03/06 04:38:54;;;;;;;12.85;7.47;;;;;;;;;;5030181;28;20060;-72
2023/03/06 04:41:19;;;;;;;18.02;8.10;;;;;;;;;;5048002;28;20029;-75
2023/03/06 04:43:45;;;;;;;15.02;6.78;;;;;;;;;;5030341;28;20087;-75
2023/03/06 04:46:10;;;;;;;12.23;7.70;;;;;;;;;;5033842;28;20021;-75
2023/03/06 04:48:35;;;;;;;16.25;7.72;;;;;;;;;;5050178;28;21381;-75
2023/03/06 04:51:01;;;;;;;13.90;7.65;;;;;;;;;;5025652;28;20033;-76
2023/03/06 04:53:26;;;;;;;14.73;7.75;;;;;;;;;;5053519;28;20025;-76
2023/03/06 04:55:51;;;;;;;14.77;6.60;;;;;;;;;;5048703;28;20376;-76
2023/03/06 04:58:16;;;;;;;14.45;7.15;;;;;;;;;;5045179;28;20021;-79
2023/03/06 05:00:43;;;;;;;14.75;7.25;;;;;;;;;;5037997;28;20077;-77
2023/03/06 05:03:09;;;;;;;15.82;8.00;;;;;;;;;;5042927;28;20121;-75
2023/03/06 05:05:34;;;;;;;17.67;8.82;;;;;;;;;;5042071;28;20021;-77
2023/03/06 05:08:00;;;;;;;13.98;7.60;;;;;;;;;;5048277;28;20033;-76
2023/03/06 05:10:25;;;;;;;14.63;7.30;;;;;;;;;;5045409;28;20361;-76
2023/03/06 05:12:50;;;;;;;15.82;7.72;;;;;;;;;;5019453;28;20029;-77
2023/03/06 05:15:16;;;;;;;14.32;7.28;;;;;;;;;;5028265;28;20020;-77
2023/03/06 05:17:41;;;;;;;14.75;8.23;;;;;;;;;;5045358;28;20472;-72
2023/03/06 05:20:08;;;;;;;18.20;7.25;;;;;;;;;;5027422;28;20029;-72
2023/03/06 05:22:33;;;;;;;12.60;6.70;;;;;;;;;;5027184;28;20029;-71
2023/03/06 05:24:59;;;;;;;15.90;7.40;;;;;;;;;;5035723;28;20044;-75
2023/03/06 05:27:24;;;;;;;12.95;7.28;;;;;;;;;;5031217;28;20024;-72
2023/03/06 05:29:49;;;;;;;12.68;6.97;;;;;;;;;;5044819;28;20048;-72
2023/03/06 05:32:15;;;;;;;14.38;7.55;;;;;;;;;;5025331;28;20808;-73
2023/03/06 05:34:40;;;;;;;17.42;8.38;;;;;;;;;;5038619;28;20033;-82
2023/03/06 05:37:06;;;;;;;13.82;7.43;;;;;;;;;;5045488;28;20079;-71
2023/03/06 05:39:31;;;;;;;14.17;7.30;;;;;;;;;;5048761;28;21493;-71
2023/03/06 05:41:56;;;;;;;13.10;7.03;;;;;;;;;;5049996;28;20769;-71
2023/03/06 05:44:22;;;;;;;14.37;7.13;;;;;;;;;;5045017;28;21648;-70
2023/03/06 05:46:48;;;;;;;12.35;6.47;;;;;;;;;;5040389;28;20283;-71
2023/03/06 05:49:13;;;;;;;15.32;7.60;;;;;;;;;;5038915;28;20611;-72
2023/03/06 05:51:38;;;;;;;16.10;9.13;;;;;;;;;;5045148;28;20416;-76
2023/03/06 05:54:04;;;;;;;16.00;7.70;;;;;;;;;;5022124;28;20630;-73
2023/03/06 05:56:29;;;;;;;14.83;7.17;;;;;;;;;;5050617;28;20100;-80
2023/03/06 05:58:54;;;;;;;12.47;7.10;;;;;;;;;;5048988;28;20276;-82
2023/03/06 06:01:20;;;;;;;13.97;7.10;;;;;;;;;;5042010;28;20325;-81
2023/03/06 06:03:45;;;;;;;17.02;7.57;;;;;;;;;;5040467;28;20526;-80
2023/03/06 06:06:12;;;;;;;14.18;7.07;;;;;;;;;;5033464;28;20044;-80
2023/03/06 06:08:37;;;;;;;12.70;7.07;;;;;;;;;;5044246;28;20025;-81
2023/03/06 06:11:04;;;;;;;18.70;8.40;;;;;;;;;;5047165;28;20055;-82
2023/03/06 06:13:29;;;;;;;13.27;6.93;;;;;;;;;;5023870;28;20083;-71
2023/03/06 06:15:54;;;;;;;15.50;7.03;;;;;;;;;;5043640;28;20460;-71
2023/03/06 06:18:20;;;;;;;13.15;7.32;;;;;;;;;;5046679;28;20827;-71
2023/03/06 06:20:45;;;;;;;15.60;7.28;;;;;;;;;;5043991;28;20025;-72
2023/03/06 06:23:10;;;;;;;17.03;7.70;;;;;;;;;;5025573;28;20063;-72
2023/03/06 06:25:36;;;;;;;15.00;6.78;;;;;;;;;;5024228;28;20282;-71
2023/03/06 06:28:02;;;;;;;13.90;6.97;;;;;;;;;;5022614;28;20051;-83
2023/03/06 06:30:27;;;;;;;15.50;7.70;;;;;;;;;;5037532;28;20094;-83
2023/03/06 06:32:52;;;;;;;17.40;8.48;;;;;;;;;;5026481;28;20488;-75
2023/03/06 06:35:17;;;;;;;14.63;6.87;;;;;;;;;;5047578;28;20033;-73
2023/03/06 06:37:43;;;;;;;12.07;6.83;;;;;;;;;;5030346;28;20295;-75
2023/03/06 06:40:08;;;;;;;13.10;6.53;;;;;;;;;;5046471;28;20286;-73
2023/03/06 06:42:35;;;;;;;14.07;7.35;;;;;;;;;;5043813;28;20287;-74
2023/03/06 06:45:00;;;;;;;13.63;7.30;;;;;;;;;;5045178;28;20040;-75
2023/03/06 06:47:26;;;;;;;13.48;7.22;;;;;;;;;;5047062;28;20471;-80
2023/03/06 06:49:52;;;;;;;10.65;6.65;;;;;;;;;;5029219;28;20403;-84
2023/03/06 06:52:17;;;;;;;14.93;7.13;;;;;;;;;;5047275;28;20044;-82
2023/03/06 06:54:43;;;;;;;14.30;7.35;;;;;;;;;;5032449;28;20049;-80
2023/03/06 06:57:09;;;;;;;13.77;6.97;;;;;;;;;;5050266;28;20127;-82
2023/03/06 06:59:34;;;;;;;13.55;7.25;;;;;;;;;;5052389;28;20110;-84
2023/03/06 07:01:59;;;;;;;16.67;8.00;;;;;;;;;;5056620;28;20028;-82
2023/03/06 07:04:25;;;;;;;14.82;7.72;;;;;;;;;;5052353;28;20102;-82
2023/03/06 07:06:50;;;;;;;14.57;7.83;;;;;;;;;;5047751;28;20067;-70
2023/03/06 07:09:15;;;;;;;16.20;7.70;;;;;;;;;;5046747;28;20278;-71
2023/03/06 07:11:40;;;;;;;18.53;7.93;;;;;;;;;;5046558;28;20691;-73
2023/03/06 07:14:06;;;;;;;20.00;7.75;;;;;;;;;;5046863;28;20751;-76
2023/03/06 07:16:31;;;;;;;14.00;7.22;;;;;;;;;;5025709;28;20051;-74
2023/03/06 07:18:56;;;;;;;15.17;7.50;;;;;;;;;;5047787;28;20025;-74
2023/03/06 07:21:21;;;;;;;14.57;8.35;;;;;;;;;;5045686;28;20264;-72
2023/03/06 07:23:47;;;;;;;14.43;7.78;;;;;;;;;;5046741;28;20025;-76
2023/03/06 07:26:12;;;;;;;15.45;7.18;;;;;;;;;;5046898;28;20498;-71
2023/03/06 07:28:37;;;;;;;15.47;7.07;;;;;;;;;;5024495;28;20033;-74
2023/03/06 07:31:06;;;;;;;15.20;7.50;;;;;;;;;;5047707;28;20267;-77
2023/03/06 07:33:32;;;;;;;16.50;7.18;;;;;;;;;;5035467;28;20275;-71
2023/03/06 07:35:57;;;;;;;14.93;6.90;;;;;;;;;;5047119;28;20029;-75
2023/03/06 07:38:22;;;;;;;14.73;7.18;;;;;;;;;;5044953;28;20275;-72
2023/03/06 07:40:52;;;;;;;13.10;7.95;;;;;;;;;;5046208;28;20025;-74
2023/03/06 07:43:18;;;;;;;15.13;8.32;;;;;;;;;;5047933;28;20052;-72
2023/03/06 07:45:45;;;;;;;20.65;8.38;;;;;;;;;;5045972;28;20483;-75
2023/03/06 07:48:11;;;;;;;14.38;8.32;;;;;;;;;;5042850;28;20033;-77
2023/03/06 07:50:37;;;;;;;17.00;7.70;;;;;;;;;;5046109;28;20025;-74
2023/03/06 07:53:03;;;;;;;14.07;8.38;;;;;;;;;;5046491;28;20028;-73
2023/03/06 07:55:28;;;;;;;15.27;7.83;;;;;;;;;;5018836;28;20044;-73
2023/03/06 07:57:53;;;;;;;18.53;8.93;;;;;;;;;;5035061;28;20785;-72
2023/03/06 08:00:18;;;;;;;15.20;7.63;;;;;;;;;;5043961;28;20268;-74
2023/03/06 08:02:44;;;;;;;13.75;7.45;;;;;;;;;;5046893;28;20280;-74
2023/03/06 08:05:11;;;;;;;14.23;7.37;;;;;;;;;;5037183;28;20021;-74
2023/03/06 08:07:36;;;;;;;22.70;8.43;;;;;;;;;;5047134;28;20280;-72
2023/03/06 08:10:02;;;;;;;13.70;7.18;;;;;;;;;;5044216;28;20032;-72
2023/03/06 08:12:27;;;;;;;12.00;6.72;;;;;;;;;;5037070;28;20091;-70
2023/03/06 08:14:52;;;;;;;10.50;6.70;;;;;;;;;;5044881;28;20379;-69
2023/03/06 08:17:18;;;;;;;14.10;7.47;;;;;;;;;;5028121;28;20789;-69
2023/03/06 08:19:43;;;;;;;13.87;7.13;;;;;;;;;;5034913;28;20021;-74
2023/03/06 08:22:09;;;;;;;12.97;6.70;;;;;;;;;;5045539;28;20276;-73
2023/03/06 08:24:35;;;;;;;14.93;6.22;;;;;;;;;;5030348;28;20293;-73
2023/03/06 08:27:00;;;;;;;11.95;6.75;;;;;;;;;;5014203;28;20579;-72
2023/03/06 08:29:26;;;;;;;13.30;7.45;;;;;;;;;;5025796;28;20025;-72
2023/03/06 08:31:51;;;;;;;13.15;6.50;;;;;;;;;;5046866;28;20428;-74
2023/03/06 08:34:19;;;;;;;13.45;6.40;;;;;;;;;;5018673;28;20320;-75
2023/03/06 08:36:44;;;;;;;13.43;6.55;;;;;;;;;;5023687;28;20044;-75
2023/03/06 08:39:09;;;;;;;10.43;5.87;;;;;;;;;;5049690;28;20028;-72
2023/03/06 08:41:35;;;;;;;12.52;6.75;;;;;;;;;;5038688;28;20707;-75
2023/03/06 08:44:00;;;;;;;10.95;6.53;;;;;;;;;;5042464;28;20041;-75
2023/03/06 08:46:26;;;;;;;11.65;6.10;;;;;;;;;;5018144;28;20518;-73
2023/03/06 08:48:52;;;;;;;10.40;5.80;;;;;;;;;;5039922;28;20031;-75
2023/03/06 08:51:17;;;;;;;10.18;5.50;;;;;;;;;;5044167;28;20029;-74
2023/03/06 08:53:43;;;;;;;12.43;6.03;;;;;;;;;;5049111;28;20033;-79
2023/03/06 08:56:17;;;;;;;10.93;5.90;;;;;;;;;;5050932;28;20032;-73
2023/03/06 08:58:43;;;;;;;16.80;6.38;;;;;;;;;;5051218;28;20823;-73
2023/03/06 09:01:15;;;;;;;10.98;5.40;;;;;;;;;;5026283;28;20065;-73
2023/03/06 09:03:41;;;;;;;11.65;7.03;;;;;;;;;;5031537;28;20032;-73
2023/03/06 09:06:06;;;;;;;10.98;5.72;;;;;;;;;;5013684;28;20380;-73
2023/03/06 09:08:31;;;;;;;11.10;6.18;;;;;;;;;;5037724;28;20033;-72
2023/03/06 09:10:57;;;;;;;10.40;6.20;;;;;;;;;;5034514;28;20068;-73
2023/03/06 09:13:22;;;;;;;11.05;6.03;;;;;;;;;;5013050;28;20421;-75
2023/03/06 09:15:47;;;;;;;14.73;6.90;;;;;;;;;;5045992;28;20032;-78
2023/03/06 09:18:12;;;;;;;12.05;6.15;;;;;;;;;;5043340;28;20032;-72
2023/03/06 09:20:38;;;;;;;9.45;5.53;;;;;;;;;;5030444;28;20030;-73
2023/03/06 09:23:03;;;;;;;11.73;6.10;;;;;;;;;;5022591;28;20688;-72
2023/03/06 09:25:28;;;;;;;9.73;5.60;;;;;;;;;;5013423;28;20337;-74
2023/03/06 09:27:53;;;;;;;10.15;5.88;;;;;;;;;;5012879;28;20104;-73
2023/03/06 09:30:19;;;;;;;11.87;5.70;;;;;;;;;;5034953;28;20396;-73
2023/03/06 09:32:44;;;;;;;9.65;5.53;;;;;;;;;;5030686;28;20630;-73
2023/03/06 09:35:10;;;;;;;10.25;5.63;;;;;;;;;;5013292;28;20105;-73
2023/03/06 09:37:35;;;;;;;10.98;6.30;;;;;;;;;;5020701;28;20062;-74
2023/03/06 09:40:03;;;;;;;9.90;4.95;;;;;;;;;;5018167;28;20353;-73
2023/03/06 09:42:28;;;;;;;10.35;5.85;;;;;;;;;;5047367;28;20094;-74
2023/03/06 09:44:54;;;;;;;10.25;5.03;;;;;;;;;;5033012;28;20026;-74
2023/03/06 09:47:37;;;;;;;9.85;5.63;;;;;;;;;;5030080;28;20079;-74
2023/03/06 09:50:11;;;;;;;10.75;5.90;;;;;;;;;;5030347;28;20026;-75
2023/03/06 09:52:42;;;;;;;9.00;5.45;;;;;;;;;;5038054;28;20036;-72
2023/03/06 09:55:10;;;;;;;10.32;5.60;;;;;;;;;;5014535;28;20079;-74
2023/03/06 09:57:39;;;;;;;8.82;5.22;;;;;;;;;;5030545;28;20043;-73
2023/03/06 10:00:10;;;;;;;9.73;5.00;;;;;;;;;;5030599;28;20043;-74
2023/03/06 10:02:38;;;;;;;10.40;5.60;;;;;;;;;;5029971;28;20533;-73
2023/03/06 10:05:05;;;;;;;8.85;5.28;;;;;;;;;;5030277;28;20087;-74
2023/03/06 10:07:49;;;;;;;13.93;6.25;;;;;;;;;;5030509;28;20494;-75
2023/03/06 10:10:17;;;;;;;9.90;5.60;;;;;;;;;;5030479;28;20037;-73
2023/03/06 10:13:02;;;;;;;10.48;5.57;;;;;;;;;;5016973;28;20087;-80
2023/03/06 10:15:32;;;;;;;11.10;5.97;;;;;;;;;;5043971;28;20432;-78
2023/03/06 10:17:57;;;;;;;10.07;5.55;;;;;;;;;;5017178;28;20036;-78
2023/03/06 10:20:27;;;;;;;11.65;5.68;;;;;;;;;;5039497;28;20636;-81
2023/03/06 10:22:55;;;;;;;11.88;6.32;;;;;;;;;;5022291;28;20037;-79
2023/03/06 10:25:30;;;;;;;9.82;5.70;;;;;;;;;;5041600;28;20035;-79
2023/03/06 10:27:55;;;;;;;13.25;6.18;;;;;;;;;;5031956;28;20113;-78
2023/03/06 10:30:36;;;;;;;8.13;4.90;;;;;;;;;;5034417;28;20116;-74
2023/03/06 10:33:07;;;;;;;9.13;4.88;;;;;;;;;;5030536;28;20029;-75
2023/03/06 10:35:43;;;;;;;8.70;5.22;;;;;;;;;;5035890;28;20060;-76
2023/03/06 10:38:14;;;;;;;11.57;5.38;;;;;;;;;;5047486;28;20029;-74
2023/03/06 10:40:43;;;;;;;11.20;5.28;;;;;;;;;;5021166;28;20032;-76
2023/03/06 10:43:10;;;;;;;10.83;4.97;;;;;;;;;;5043608;28;20033;-74
2023/03/06 10:45:44;;;;;;;9.93;5.28;;;;;;;;;;5039696;28;20293;-71
2023/03/06 10:48:10;;;;;;;11.00;6.22;;;;;;;;;;5029576;28;20025;-73
2023/03/06 10:50:36;;;;;;;8.35;4.82;;;;;;;;;;5029550;28;20409;-74
2023/03/06 10:53:03;;;;;;;10.52;5.10;;;;;;;;;;5026004;28;20064;-73
2023/03/06 10:55:38;;;;;;;10.10;5.65;;;;;;;;;;5024945;28;20388;-75
2023/03/06 10:58:29;;;;;;;11.82;5.80;;;;;;;;;;5029224;28;20040;-75
2023/03/06 11:01:01;;;;;;;8.82;4.97;;;;;;;;;;5009183;28;20041;-73
2023/03/06 11:03:27;;;;;;;10.93;5.37;;;;;;;;;;5029304;28;20575;-73
2023/03/06 11:05:58;;;;;;;9.98;5.63;;;;;;;;;;5029449;28;20037;-70
2023/03/06 11:08:23;;;;;;;8.05;4.97;;;;;;;;;;5029594;28;20166;-71
2023/03/06 11:10:56;;;;;;;9.55;5.30;;;;;;;;;;5029150;28;20104;-71
2023/03/06 11:13:23;;;;;;;10.77;6.03;;;;;;;;;;5038025;28;20132;-70
2023/03/06 11:16:14;;;;;;;10.77;5.43;;;;;;;;;;5043349;28;20045;-70
2023/03/06 11:18:41;;;;;;;9.40;5.30;;;;;;;;;;5029103;28;20084;-71
2023/03/06 11:21:23;;;;;;;9.85;5.72;;;;;;;;;;5027330;28;20024;-71
2023/03/06 11:23:50;;;;;;;9.63;5.72;;;;;;;;;;5018500;28;20112;-71
2023/03/06 11:26:15;;;;;;;10.50;5.88;;;;;;;;;;5029026;28;20026;-74
2023/03/06 11:28:59;;;;;;;8.55;5.03;;;;;;;;;;5029407;28;20057;-74
2023/03/06 11:31:26;;;;;;;9.98;5.47;;;;;;;;;;5030356;28;20026;-77
2023/03/06 11:33:51;;;;;;;12.95;5.70;;;;;;;;;;5029270;28;20060;-78
2023/03/06 11:36:29;;;;;;;9.90;5.80;;;;;;;;;;5044085;28;20374;-76
2023/03/06 11:38:54;;;;;;;10.25;5.65;;;;;;;;;;5028905;28;20067;-76
2023/03/06 11:41:31;;;;;;;8.30;5.10;;;;;;;;;;5044856;28;20037;-71
2023/03/06 11:44:04;;;;;;;10.65;5.85;;;;;;;;;;5039063;28;20026;-72
2023/03/06 11:46:35;;;;;;;12.90;5.88;;;;;;;;;;5029142;28;20139;-72
2023/03/06 11:49:12;;;;;;;11.88;5.57;;;;;;;;;;5017695;28;20212;-71
2023/03/06 11:51:41;;;;;;;11.13;5.90;;;;;;;;;;5029304;28;20030;-71
2023/03/06 11:54:08;;;;;;;10.45;5.35;;;;;;;;;;5038850;28;20021;-74
2023/03/06 11:56:34;;;;;;;10.13;5.80;;;;;;;;;;5010468;28;20040;-76
2023/03/06 11:58:59;;;;;;;11.55;5.72;;;;;;;;;;5011051;28;20021;-79
2023/03/06 12:01:43;;;;;;;14.18;5.80;;;;;;;;;;5011329;28;20628;-79
2023/03/06 12:04:27;;;;;;;10.07;5.90;;;;;;;;;;5015233;28;20433;-79
2023/03/06 12:06:58;;;;;;;10.52;5.25;;;;;;;;;;5017760;28;20052;-78
2023/03/06 12:09:26;;;;;;;10.38;5.78;;;;;;;;;;5028712;28;20021;-77
2023/03/06 12:12:03;;;;;;;10.50;6.22;;;;;;;;;;5038908;28;20065;-79
2023/03/06 12:14:38;;;;;;;11.13;6.50;;;;;;;;;;5037300;28;20029;-79
2023/03/06 12:17:11;;;;;;;10.18;5.18;;;;;;;;;;5034073;28;20045;-79
2023/03/06 12:19:55;;;;;;;10.38;5.22;;;;;;;;;;5015127;28;20116;-72
2023/03/06 12:22:39;;;;;;;9.68;5.35;;;;;;;;;;5030752;28;20024;-74
2023/03/06 12:25:15;;;;;;;11.00;5.75;;;;;;;;;;5041066;28;20033;-72
2023/03/06 12:27:45;;;;;;;11.13;5.50;;;;;;;;;;5036431;28;20042;-74
2023/03/06 12:30:13;;;;;;;9.32;5.97;;;;;;;;;;5044035;28;20138;-74
2023/03/06 12:32:50;;;;;;;10.25;5.70;;;;;;;;;;5033368;28;20037;-73
2023/03/06 12:35:31;;;;;;;10.40;5.47;;;;;;;;;;5032442;28;20037;-72
2023/03/06 12:38:15;;;;;;;11.48;5.88;;;;;;;;;;5023863;28;20033;-79
2023/03/06 12:40:47;;;;;;;11.65;5.50;;;;;;;;;;5031205;28;20031;-76
2023/03/06 12:43:12;;;;;;;9.13;5.43;;;;;;;;;;5045539;28;20694;-73
2023/03/06 12:45:37;;;;;;;12.27;5.90;;;;;;;;;;5032121;28;20033;-74
2023/03/06 12:48:08;;;;;;;9.85;5.07;;;;;;;;;;5031682;28;20168;-75
2023/03/06 12:50:37;;;;;;;10.32;5.40;;;;;;;;;;5031580;28;20025;-74
2023/03/06 12:53:04;;;;;;;9.37;5.37;;;;;;;;;;5048133;28;20214;-75
2023/03/06 12:55:37;;;;;;;10.75;5.60;;;;;;;;;;5032927;28;20288;-74
2023/03/06 12:58:21;;;;;;;9.70;5.30;;;;;;;;;;5031088;28;20036;-74
2023/03/06 13:00:54;;;;;;;8.60;5.10;;;;;;;;;;5013628;28;20029;-74
2023/03/06 13:03:38;;;;;;;11.63;6.07;;;;;;;;;;5013992;28;20064;-73
2023/03/06 13:06:22;;;;;;;10.20;5.80;;;;;;;;;;5013358;28;20035;-73
2023/03/06 13:08:51;;;;;;;10.48;5.93;;;;;;;;;;5031521;28;20021;-74
2023/03/06 13:11:31;;;;;;;8.98;4.97;;;;;;;;;;5014916;28;20116;-75
2023/03/06 13:13:57;;;;;;;7.28;4.47;;;;;;;;;;5036191;28;20060;-73
2023/03/06 13:16:22;;;;;;;10.07;5.28;;;;;;;;;;5044138;28;20472;-73
2023/03/06 13:18:50;;;;;;;8.60;4.68;;;;;;;;;;5013197;28;20026;-75
2023/03/06 13:21:34;;;;;;;9.05;4.60;;;;;;;;;;5030984;28;20115;-73
2023/03/06 13:24:04;;;;;;;10.43;5.38;;;;;;;;;;5040093;28;20033;-74
2023/03/06 13:26:29;;;;;;;10.98;5.95;;;;;;;;;;5037513;28;20025;-74
2023/03/06 13:28:56;;;;;;;9.53;5.40;;;;;;;;;;5038117;28;20485;-75
2023/03/06 13:31:47;;;;;;;7.57;4.70;;;;;;;;;;5033158;28;21019;-72
2023/03/06 13:34:31;;;;;;;10.02;5.13;;;;;;;;;;5030455;28;20035;-72
2023/03/06 13:37:14;;;;;;;8.63;4.47;;;;;;;;;;5033917;28;20029;-71
2023/03/06 13:39:52;;;;;;;10.13;5.72;;;;;;;;;;5015749;28;20403;-71
2023/03/06 13:42:27;;;;;;;11.40;5.32;;;;;;;;;;5039409;28;20029;-72
2023/03/06 13:44:53;;;;;;;9.90;5.57;;;;;;;;;;5032275;28;20026;-71
2023/03/06 13:47:38;;;;;;;10.57;4.53;;;;;;;;;;5029375;28;20038;-71
2023/03/06 13:50:18;;;;;;;9.75;5.20;;;;;;;;;;5029250;28;20025;-72
2023/03/06 13:52:43;;;;;;;;;;;;;;;;;;5021207;28;20403;-79
2023/03/06 13:55:31;;;;;;;8.75;4.30;;;;;;;;;;5014653;28;19909;-78
2023/03/06 13:58:08;;;;;;;9.00;5.20;;;;;;;;;;5021337;28;20037;-77
2023/03/06 14:00:33;;;;;;;9.02;5.05;;;;;;;;;;5015615;28;20104;-78
2023/03/06 14:02:58;;;;;;;8.00;4.30;;;;;;;;;;5030225;28;20172;-78
2023/03/06 14:05:24;;;;;;;10.00;5.10;;;;;;;;;;5030206;28;20420;-77
2023/03/06 14:08:04;;;;;;;12.65;5.05;;;;;;;;;;5030335;28;20033;-71
2023/03/06 14:10:29;;;;;;;;;;;;;;;;;;5030519;28;20033;-73
2023/03/06 14:12:58;;;;;;;9.18;4.45;;;;;;;;;;5012361;28;19938;-73
2023/03/06 14:15:27;;;;;;;9.43;4.25;;;;;;;;;;5041745;28;20040;-73
2023/03/06 14:17:58;;;;;;;8.50;5.15;;;;;;;;;;5030847;28;20030;-74
2023/03/06 14:20:26;;;;;;;9.45;4.68;;;;;;;;;;5014066;28;20090;-74
2023/03/06 14:22:51;;;;;;;8.63;4.45;;;;;;;;;;5041613;28;20124;-72
2023/03/06 14:25:22;;;;;;;8.15;4.72;;;;;;;;;;5037557;28;20184;-73
2023/03/06 14:27:51;;;;;;;8.40;4.13;;;;;;;;;;5027078;28;20025;-77
2023/03/06 14:30:19;;;;;;;11.77;4.70;;;;;;;;;;5041033;28;20029;-79
2023/03/06 14:32:45;;;;;;;7.05;4.25;;;;;;;;;;5029502;28;20272;-76
2023/03/06 14:35:30;;;;;;;9.88;5.10;;;;;;;;;;5012651;28;20029;-78